sensor_id;sensor_type;location;lat;lon;timestamp;pressure;altitude;pressure_sealevel;temperature;humidity
62948;BME280;51940;52.126;-0.994;2023-05-17T00:00:00;101126.00;;;9.09;100.00
62948;BME280;51940;52.126;-0.994;2023-05-17T00:02:25;101117.12;;;9.08;100.00
62948;BME280;51940;52.126;-0.994;2023-05-17T00:04:51;101116.06;;;9.07;100.00
62948;BME280;51940;52.126;-0.994;2023-05-17T00:07:17;101113.89;;;9.11;100.00
62948;BME280;51940;52.126;-0.994;2023-05-17T00:09:43;101119.21;;;9.12;100.00
62948;BME280;51940;52.126;-0.994;2023-05-17T00:12:08;101115.52;;;9.06;100.00
62948;BME280;51940;52.126;-0.994;2023-05-17T00:14:34;101116.05;;;9.04;100.00
62948;BME280;51940;52.126;-0.994;2023-05-17T00:16:59;101122.63;;;9.04;100.00
62948;BME280;51940;52.126;-0.994;2023-05-17T00:19:25;101120.52;;;9.02;100.00
62948;BME280;51940;52.126;-0.994;2023-05-17T00:21:50;101117.84;;;9.05;100.00
62948;BME280;51940;52.126;-0.994;2023-05-17T00:24:15;101121.03;;;9.08;100.00
62948;BME280;51940;52.126;-0.994;2023-05-17T00:26:41;101123.49;;;9.10;100.00
62948;BME280;51940;52.126;-0.994;2023-05-17T00:29:06;101124.95;;;9.09;100.00
62948;BME280;51940;52.126;-0.994;2023-05-17T00:31:32;101120.69;;;9.04;100.00
62948;BME280;51940;52.126;-0.994;2023-05-17T00:33:57;101120.17;;;9.01;100.00
62948;BME280;51940;52.126;-0.994;2023-05-17T00:36:24;101118.05;;;9.00;100.00
62948;BME280;51940;52.126;-0.994;2023-05-17T00:38:49;101117.54;;;8.98;100.00
62948;BME280;51940;52.126;-0.994;2023-05-17T00:41:15;101115.73;;;8.96;100.00
62948;BME280;51940;52.126;-0.994;2023-05-17T00:43:42;101118.77;;;8.97;100.00
62948;BME280;51940;52.126;-0.994;2023-05-17T00:46:08;101118.05;;;8.96;100.00
62948;BME280;51940;52.126;-0.994;2023-05-17T00:48:34;101117.18;;;8.94;100.00
62948;BME280;51940;52.126;-0.994;2023-05-17T00:51:00;101117.05;;;8.89;100.00
62948;BME280;51940;52.126;-0.994;2023-05-17T00:53:26;101120.77;;;8.89;100.00
62948;BME280;51940;52.126;-0.994;2023-05-17T00:55:53;101126.81;;;8.91;100.00
62948;BME280;51940;52.126;-0.994;2023-05-17T00:58:20;101131.98;;;8.92;100.00
62948;BME280;51940;52.126;-0.994;2023-05-17T01:00:46;101136.59;;;8.92;100.00
62948;BME280;51940;52.126;-0.994;2023-05-17T01:03:12;101132.70;;;8.89;100.00
62948;BME280;51940;52.126;-0.994;2023-05-17T01:05:37;101130.76;;;8.85;100.00
62948;BME280;51940;52.126;-0.994;2023-05-17T01:08:03;101129.02;;;8.77;100.00
62948;BME280;51940;52.126;-0.994;2023-05-17T01:10:40;101117.33;;;8.67;100.00
62948;BME280;51940;52.126;-0.994;2023-05-17T01:13:32;101120.59;;;8.54;100.00
62948;BME280;51940;52.126;-0.994;2023-05-17T01:18:40;101118.70;;;8.31;100.00
62948;BME280;51940;52.126;-0.994;2023-05-17T01:24:16;101112.48;;;8.24;100.00
62948;BME280;51940;52.126;-0.994;2023-05-17T01:26:47;101113.57;;;8.22;100.00
62948;BME280;51940;52.126;-0.994;2023-05-17T01:29:15;101110.02;;;8.17;100.00
62948;BME280;51940;52.126;-0.994;2023-05-17T01:31:41;101107.88;;;8.18;100.00
62948;BME280;51940;52.126;-0.994;2023-05-17T01:34:08;101108.23;;;8.19;100.00
62948;BME280;51940;52.126;-0.994;2023-05-17T01:36:33;101107.71;;;8.21;100.00
62948;BME280;51940;52.126;-0.994;2023-05-17T01:39:00;101109.66;;;8.22;100.00
62948;BME280;51940;52.126;-0.994;2023-05-17T01:41:29;101112.14;;;8.24;100.00
62948;BME280;51940;52.126;-0.994;2023-05-17T01:46:38;101115.33;;;8.24;100.00
62948;BME280;51940;52.126;-0.994;2023-05-17T01:49:21;101107.70;;;8.20;100.00
62948;BME280;51940;52.126;-0.994;2023-05-17T01:52:13;101105.76;;;8.16;100.00
62948;BME280;51940;52.126;-0.994;2023-05-17T01:54:46;101107.02;;;8.10;100.00
62948;BME280;51940;52.126;-0.994;2023-05-17T01:57:19;101104.91;;;8.04;100.00
62948;BME280;51940;52.126;-0.994;2023-05-17T01:59:50;101106.69;;;8.02;100.00
62948;BME280;51940;52.126;-0.994;2023-05-17T02:02:17;101104.39;;;7.92;100.00
62948;BME280;51940;52.126;-0.994;2023-05-17T02:04:42;101105.30;;;7.82;100.00
62948;BME280;51940;52.126;-0.994;2023-05-17T02:07:08;101105.84;;;7.78;100.00
62948;BME280;51940;52.126;-0.994;2023-05-17T02:09:33;101105.66;;;7.73;100.00
62948;BME280;51940;52.126;-0.994;2023-05-17T02:11:58;101099.63;;;7.74;100.00
62948;BME280;51940;52.126;-0.994;2023-05-17T02:14:24;101097.67;;;7.75;100.00
62948;BME280;51940;52.126;-0.994;2023-05-17T02:16:49;101099.98;;;7.74;100.00
62948;BME280;51940;52.126;-0.994;2023-05-17T02:19:14;101100.88;;;7.65;100.00
62948;BME280;51940;52.126;-0.994;2023-05-17T02:21:41;101099.63;;;7.59;100.00
62948;BME280;51940;52.126;-0.994;2023-05-17T02:24:07;101097.15;;;7.60;100.00
62948;BME280;51940;52.126;-0.994;2023-05-17T02:26:32;101100.19;;;7.62;100.00
62948;BME280;51940;52.126;-0.994;2023-05-17T02:28:57;101101.23;;;7.60;100.00
62948;BME280;51940;52.126;-0.994;2023-05-17T02:31:23;101101.94;;;7.60;100.00
62948;BME280;51940;52.126;-0.994;2023-05-17T02:33:52;101102.66;;;7.62;100.00
62948;BME280;51940;52.126;-0.994;2023-05-17T02:36:17;101105.13;;;7.66;100.00
62948;BME280;51940;52.126;-0.994;2023-05-17T02:38:44;101108.69;;;7.63;100.00
62948;BME280;51940;52.126;-0.994;2023-05-17T02:41:10;101103.55;;;7.56;100.00
62948;BME280;51940;52.126;-0.994;2023-05-17T02:43:35;101097.51;;;7.53;100.00
62948;BME280;51940;52.126;-0.994;2023-05-17T02:46:01;101099.11;;;7.51;100.00
62948;BME280;51940;52.126;-0.994;2023-05-17T02:48:27;101100.01;;;7.45;100.00
62948;BME280;51940;52.126;-0.994;2023-05-17T02:50:53;101091.30;;;7.42;100.00
62948;BME280;51940;52.126;-0.994;2023-05-17T02:53:19;101093.26;;;7.43;100.00
62948;BME280;51940;52.126;-0.994;2023-05-17T02:55:44;101089.89;;;7.45;100.00
62948;BME280;51940;52.126;-0.994;2023-05-17T02:58:09;101093.08;;;7.40;100.00
62948;BME280;51940;52.126;-0.994;2023-05-17T03:00:36;101092.72;;;7.27;100.00
62948;BME280;51940;52.126;-0.994;2023-05-17T03:03:02;101093.06;;;7.18;100.00
62948;BME280;51940;52.126;-0.994;2023-05-17T03:05:27;101094.66;;;7.13;100.00
62948;BME280;51940;52.126;-0.994;2023-05-17T03:07:54;101090.40;;;7.12;100.00
62948;BME280;51940;52.126;-0.994;2023-05-17T03:10:19;101096.41;;;7.07;100.00
62948;BME280;51940;52.126;-0.994;2023-05-17T03:12:45;101097.13;;;7.09;100.00
62948;BME280;51940;52.126;-0.994;2023-05-17T03:15:10;101096.42;;;7.06;100.00
62948;BME280;51940;52.126;-0.994;2023-05-17T03:17:36;101096.58;;;6.97;100.00
62948;BME280;51940;52.126;-0.994;2023-05-17T03:20:01;101090.35;;;6.91;100.00
62948;BME280;51940;52.126;-0.994;2023-05-17T03:22:26;101090.54;;;6.88;100.00
62948;BME280;51940;52.126;-0.994;2023-05-17T03:24:52;101089.48;;;6.86;100.00
62948;BME280;51940;52.126;-0.994;2023-05-17T03:27:17;101088.23;;;6.86;100.00
62948;BME280;51940;52.126;-0.994;2023-05-17T03:29:43;101088.40;;;6.83;100.00
62948;BME280;51940;52.126;-0.994;2023-05-17T03:32:08;101089.96;;;6.74;100.00
62948;BME280;51940;52.126;-0.994;2023-05-17T03:34:33;101090.13;;;6.68;100.00
62948;BME280;51940;52.126;-0.994;2023-05-17T03:36:59;101092.23;;;6.66;100.00
62948;BME280;51940;52.126;-0.994;2023-05-17T03:39:25;101093.30;;;6.65;100.00
62948;BME280;51940;52.126;-0.994;2023-05-17T03:41:50;101093.48;;;6.64;100.00
62948;BME280;51940;52.126;-0.994;2023-05-17T03:44:16;101092.59;;;6.66;100.00
62948;BME280;51940;52.126;-0.994;2023-05-17T03:46:42;101093.48;;;6.66;100.00
62948;BME280;51940;52.126;-0.994;2023-05-17T03:49:07;101093.67;;;6.66;100.00
62948;BME280;51940;52.126;-0.994;2023-05-17T03:51:33;101098.47;;;6.67;100.00
62948;BME280;51940;52.126;-0.994;2023-05-17T03:53:59;101096.88;;;6.67;100.00
62948;BME280;51940;52.126;-0.994;2023-05-17T03:56:26;101099.17;;;6.68;100.00
62948;BME280;51940;52.126;-0.994;2023-05-17T03:58:51;101096.87;;;6.71;100.00
62948;BME280;51940;52.126;-0.994;2023-05-17T04:01:17;101098.46;;;6.72;100.00
62948;BME280;51940;52.126;-0.994;2023-05-17T04:03:45;101101.50;;;6.77;100.00
62948;BME280;51940;52.126;-0.994;2023-05-17T04:06:12;101107.54;;;6.77;100.00
62948;BME280;51940;52.126;-0.994;2023-05-17T04:08:37;101105.21;;;6.73;100.00
62948;BME280;51940;52.126;-0.994;2023-05-17T04:11:03;101103.43;;;6.67;100.00
62948;BME280;51940;52.126;-0.994;2023-05-17T04:13:37;101096.52;;;6.68;100.00
62948;BME280;51940;52.126;-0.994;2023-05-17T04:16:02;101093.15;;;6.74;100.00
62948;BME280;51940;52.126;-0.994;2023-05-17T04:18:28;101098.14;;;6.83;100.00
62948;BME280;51940;52.126;-0.994;2023-05-17T04:20:54;101101.00;;;6.92;100.00
62948;BME280;51940;52.126;-0.994;2023-05-17T04:23:20;101098.52;;;6.98;100.00
62948;BME280;51940;52.126;-0.994;2023-05-17T04:25:45;101099.08;;;7.07;100.00
62948;BME280;51940;52.126;-0.994;2023-05-17T04:28:11;101098.39;;;7.18;100.00
62948;BME280;51940;52.126;-0.994;2023-05-17T04:30:41;101101.42;;;7.30;100.00
62948;BME280;51940;52.126;-0.994;2023-05-17T04:33:07;101110.11;;;7.44;100.00
62948;BME280;51940;52.126;-0.994;2023-05-17T04:35:32;101110.29;;;7.55;100.00
62948;BME280;51940;52.126;-0.994;2023-05-17T04:37:57;101114.54;;;7.65;100.00
62948;BME280;51940;52.126;-0.994;2023-05-17T04:40:23;101115.60;;;7.80;100.00
62948;BME280;51940;52.126;-0.994;2023-05-17T04:42:48;101117.54;;;7.90;100.00
62948;BME280;51940;52.126;-0.994;2023-05-17T04:45:14;101119.66;;;7.98;100.00
62948;BME280;51940;52.126;-0.994;2023-05-17T04:47:40;101117.30;;;8.20;100.00
62948;BME280;51940;52.126;-0.994;2023-05-17T04:50:06;101114.36;;;8.92;100.00
62948;BME280;51940;52.126;-0.994;2023-05-17T04:52:31;101124.55;;;9.78;100.00
62948;BME280;51940;52.126;-0.994;2023-05-17T04:54:57;101143.44;;;10.51;100.00
62948;BME280;51940;52.126;-0.994;2023-05-17T04:57:22;101166.66;;;11.06;100.00
62948;BME280;51940;52.126;-0.994;2023-05-17T04:59:48;101190.20;;;11.58;100.00
62948;BME280;51940;52.126;-0.994;2023-05-17T05:02:13;101201.97;;;12.16;100.00
62948;BME280;51940;52.126;-0.994;2023-05-17T05:04:39;101216.89;;;12.78;100.00
62948;BME280;51940;52.126;-0.994;2023-05-17T05:07:04;101235.71;;;13.46;100.00
62948;BME280;51940;52.126;-0.994;2023-05-17T05:09:29;101256.41;;;14.04;100.00
62948;BME280;51940;52.126;-0.994;2023-05-17T05:11:55;101276.28;;;14.56;100.00
62948;BME280;51940;52.126;-0.994;2023-05-17T05:14:20;101305.92;;;15.15;100.00
62948;BME280;51940;52.126;-0.994;2023-05-17T05:16:46;101334.81;;;15.73;100.00
62948;BME280;51940;52.126;-0.994;2023-05-17T05:19:11;101353.52;;;16.30;100.00
62948;BME280;51940;52.126;-0.994;2023-05-17T05:21:36;101391.04;;;16.99;100.00
62948;BME280;51940;52.126;-0.994;2023-05-17T05:24:02;101465.83;;;17.77;100.00
62948;BME280;51940;52.126;-0.994;2023-05-17T05:26:28;101523.30;;;18.53;100.00
62948;BME280;51940;52.126;-0.994;2023-05-17T05:28:54;101559.29;;;19.25;100.00
62948;BME280;51940;52.126;-0.994;2023-05-17T05:31:20;101596.98;;;20.04;100.00
62948;BME280;51940;52.126;-0.994;2023-05-17T05:33:45;101629.23;;;20.88;100.00
62948;BME280;51940;52.126;-0.994;2023-05-17T05:36:11;101662.73;;;21.65;100.00
62948;BME280;51940;52.126;-0.994;2023-05-17T05:38:36;101678.17;;;22.22;100.00
62948;BME280;51940;52.126;-0.994;2023-05-17T05:41:01;101693.63;;;22.90;100.00
62948;BME280;51940;52.126;-0.994;2023-05-17T05:43:27;101708.05;;;23.61;100.00
62948;BME280;51940;52.126;-0.994;2023-05-17T05:45:52;101720.70;;;24.34;100.00
62948;BME280;51940;52.126;-0.994;2023-05-17T05:48:18;101731.61;;;24.97;100.00
62948;BME280;51940;52.126;-0.994;2023-05-17T05:50:43;101741.83;;;25.54;100.00
62948;BME280;51940;52.126;-0.994;2023-05-17T05:53:09;101748.51;;;26.24;100.00
62948;BME280;51940;52.126;-0.994;2023-05-17T05:55:38;101751.39;;;26.91;100.00
62948;BME280;51940;52.126;-0.994;2023-05-17T05:58:11;101758.95;;;27.61;100.00
62948;BME280;51940;52.126;-0.994;2023-05-17T06:00:37;101754.75;;;28.29;100.00
62948;BME280;51940;52.126;-0.994;2023-05-17T06:03:04;101758.61;;;28.97;100.00
62948;BME280;51940;52.126;-0.994;2023-05-17T06:05:30;101761.84;;;29.52;100.00
62948;BME280;51940;52.126;-0.994;2023-05-17T06:07:55;101764.77;;;30.06;100.00
62948;BME280;51940;52.126;-0.994;2023-05-17T06:10:21;101760.64;;;30.48;100.00
62948;BME280;51940;52.126;-0.994;2023-05-17T06:12:48;101769.16;;;30.85;100.00
62948;BME280;51940;52.126;-0.994;2023-05-17T06:15:14;101773.77;;;31.33;98.68
62948;BME280;51940;52.126;-0.994;2023-05-17T06:17:39;101772.52;;;31.85;95.13
62948;BME280;51940;52.126;-0.994;2023-05-17T06:20:05;101772.55;;;32.26;91.52
62948;BME280;51940;52.126;-0.994;2023-05-17T06:22:33;101776.70;;;32.41;89.49
62948;BME280;51940;52.126;-0.994;2023-05-17T06:24:59;101777.92;;;32.56;87.97
62948;BME280;51940;52.126;-0.994;2023-05-17T06:27:26;101777.27;;;32.78;85.60
62948;BME280;51940;52.126;-0.994;2023-05-17T06:29:51;101776.88;;;32.73;85.13
62948;BME280;51940;52.126;-0.994;2023-05-17T06:32:17;101779.15;;;32.60;84.14
62948;BME280;51940;52.126;-0.994;2023-05-17T06:34:43;101786.88;;;31.83;85.76
62948;BME280;51940;52.126;-0.994;2023-05-17T06:37:08;101794.06;;;31.18;86.41
62948;BME280;51940;52.126;-0.994;2023-05-17T06:39:33;101794.83;;;30.50;87.77
62948;BME280;51940;52.126;-0.994;2023-05-17T06:41:59;101798.02;;;30.13;90.31
62948;BME280;51940;52.126;-0.994;2023-05-17T06:44:25;101798.51;;;29.54;93.10
62948;BME280;51940;52.126;-0.994;2023-05-17T06:46:51;101800.55;;;28.70;99.13
62948;BME280;51940;52.126;-0.994;2023-05-17T06:49:16;101799.77;;;28.01;100.00
62948;BME280;51940;52.126;-0.994;2023-05-17T06:51:41;101795.05;;;28.05;100.00
62948;BME280;51940;52.126;-0.994;2023-05-17T06:54:07;101796.30;;;27.52;100.00
62948;BME280;51940;52.126;-0.994;2023-05-17T06:56:33;101800.23;;;26.99;100.00
62948;BME280;51940;52.126;-0.994;2023-05-17T06:58:59;101803.66;;;27.03;100.00
62948;BME280;51940;52.126;-0.994;2023-05-17T07:01:25;101805.83;;;26.47;100.00
62948;BME280;51940;52.126;-0.994;2023-05-17T07:03:50;101807.67;;;25.44;100.00
62948;BME280;51940;52.126;-0.994;2023-05-17T07:06:15;101803.30;;;24.44;100.00
62948;BME280;51940;52.126;-0.994;2023-05-17T07:08:41;101800.63;;;23.76;100.00
62948;BME280;51940;52.126;-0.994;2023-05-17T07:11:07;101805.77;;;23.13;100.00
62948;BME280;51940;52.126;-0.994;2023-05-17T07:13:34;101804.13;;;22.54;100.00
62948;BME280;51940;52.126;-0.994;2023-05-17T07:15:59;101799.86;;;22.05;100.00
62948;BME280;51940;52.126;-0.994;2023-05-17T07:18:26;101800.84;;;21.70;100.00
62948;BME280;51940;52.126;-0.994;2023-05-17T07:20:52;101795.38;;;21.36;100.00
62948;BME280;51940;52.126;-0.994;2023-05-17T07:23:17;101802.38;;;21.10;100.00
62948;BME280;51940;52.126;-0.994;2023-05-17T07:25:43;101804.51;;;20.74;100.00
62948;BME280;51940;52.126;-0.994;2023-05-17T07:28:08;101803.02;;;20.37;100.00
62948;BME280;51940;52.126;-0.994;2023-05-17T07:30:33;101802.49;;;20.15;100.00
62948;BME280;51940;52.126;-0.994;2023-05-17T07:32:59;101803.98;;;19.92;100.00
62948;BME280;51940;52.126;-0.994;2023-05-17T07:35:27;101803.85;;;19.73;100.00
62948;BME280;51940;52.126;-0.994;2023-05-17T07:37:52;101801.52;;;19.62;100.00
62948;BME280;51940;52.126;-0.994;2023-05-17T07:40:18;101797.49;;;19.49;100.00
62948;BME280;51940;52.126;-0.994;2023-05-17T07:42:43;101801.79;;;19.36;100.00
62948;BME280;51940;52.126;-0.994;2023-05-17T07:45:11;101801.77;;;19.17;100.00
62948;BME280;51940;52.126;-0.994;2023-05-17T07:47:36;101807.05;;;18.92;100.00
62948;BME280;51940;52.126;-0.994;2023-05-17T07:50:04;101799.65;;;18.66;100.00
62948;BME280;51940;52.126;-0.994;2023-05-17T07:52:29;101794.50;;;18.48;100.00
62948;BME280;51940;52.126;-0.994;2023-05-17T07:54:55;101788.91;;;18.36;100.00
62948;BME280;51940;52.126;-0.994;2023-05-17T07:57:20;101790.55;;;18.26;100.00
62948;BME280;51940;52.126;-0.994;2023-05-17T07:59:45;101787.69;;;18.14;100.00
62948;BME280;51940;52.126;-0.994;2023-05-17T08:02:11;101783.98;;;18.12;100.00
62948;BME280;51940;52.126;-0.994;2023-05-17T08:04:36;101773.52;;;18.22;100.00
62948;BME280;51940;52.126;-0.994;2023-05-17T08:07:03;101773.03;;;18.25;100.00
62948;BME280;51940;52.126;-0.994;2023-05-17T08:09:29;101773.22;;;18.31;100.00
62948;BME280;51940;52.126;-0.994;2023-05-17T08:11:54;101767.33;;;18.39;100.00
62948;BME280;51940;52.126;-0.994;2023-05-17T08:14:22;101773.98;;;18.40;100.00
62948;BME280;51940;52.126;-0.994;2023-05-17T08:16:47;101776.95;;;18.32;100.00
62948;BME280;51940;52.126;-0.994;2023-05-17T08:19:13;101777.28;;;18.23;100.00
62948;BME280;51940;52.126;-0.994;2023-05-17T08:21:40;101773.16;;;18.11;100.00
62948;BME280;51940;52.126;-0.994;2023-05-17T08:24:06;101772.20;;;18.08;100.00
62948;BME280;51940;52.126;-0.994;2023-05-17T08:26:32;101772.02;;;17.96;100.00
62948;BME280;51940;52.126;-0.994;2023-05-17T08:28:58;101769.98;;;17.69;100.00
62948;BME280;51940;52.126;-0.994;2023-05-17T08:31:23;101770.74;;;17.56;100.00
62948;BME280;51940;52.126;-0.994;2023-05-17T08:33:49;101772.04;;;17.55;100.00
62948;BME280;51940;52.126;-0.994;2023-05-17T08:36:14;101771.39;;;17.59;100.00
62948;BME280;51940;52.126;-0.994;2023-05-17T08:38:40;101765.36;;;17.67;100.00
62948;BME280;51940;52.126;-0.994;2023-05-17T08:41:07;101765.09;;;17.76;100.00
62948;BME280;51940;52.126;-0.994;2023-05-17T08:43:33;101765.80;;;17.82;100.00
62948;BME280;51940;52.126;-0.994;2023-05-17T08:45:59;101759.73;;;17.91;100.00
62948;BME280;51940;52.126;-0.994;2023-05-17T08:48:25;101759.71;;;18.14;100.00
62948;BME280;51940;52.126;-0.994;2023-05-17T08:50:53;101762.79;;;18.24;100.00
62948;BME280;51940;52.126;-0.994;2023-05-17T08:53:20;101759.23;;;18.28;100.00
62948;BME280;51940;52.126;-0.994;2023-05-17T08:55:46;101762.02;;;18.20;100.00
62948;BME280;51940;52.126;-0.994;2023-05-17T08:58:25;101760.22;;;18.09;100.00
62948;BME280;51940;52.126;-0.994;2023-05-17T09:00:53;101757.11;;;18.11;100.00
62948;BME280;51940;52.126;-0.994;2023-05-17T09:03:21;101764.09;;;18.17;100.00
62948;BME280;51940;52.126;-0.994;2023-05-17T09:05:51;101759.83;;;18.21;100.00
62948;BME280;51940;52.126;-0.994;2023-05-17T09:08:18;101758.77;;;18.20;100.00
62948;BME280;51940;52.126;-0.994;2023-05-17T09:10:45;101767.36;;;18.12;100.00
62948;BME280;51940;52.126;-0.994;2023-05-17T09:13:11;101759.66;;;18.10;100.00
62948;BME280;51940;52.126;-0.994;2023-05-17T09:15:46;101757.44;;;18.27;100.00
62948;BME280;51940;52.126;-0.994;2023-05-17T09:18:11;101754.10;;;18.40;100.00
62948;BME280;51940;52.126;-0.994;2023-05-17T09:20:38;101755.23;;;18.28;100.00
62948;BME280;51940;52.126;-0.994;2023-05-17T09:23:08;101760.30;;;18.12;100.00
62948;BME280;51940;52.126;-0.994;2023-05-17T09:25:38;101761.13;;;18.03;100.00
62948;BME280;51940;52.126;-0.994;2023-05-17T09:28:11;101761.22;;;18.12;100.00
62948;BME280;51940;52.126;-0.994;2023-05-17T09:30:37;101757.05;;;18.33;100.00
62948;BME280;51940;52.126;-0.994;2023-05-17T09:33:09;101759.16;;;18.50;100.00
62948;BME280;51940;52.126;-0.994;2023-05-17T09:35:36;101762.35;;;18.42;100.00
62948;BME280;51940;52.126;-0.994;2023-05-17T09:38:09;101765.80;;;18.31;100.00
62948;BME280;51940;52.126;-0.994;2023-05-17T09:40:43;101761.14;;;18.35;100.00
62948;BME280;51940;52.126;-0.994;2023-05-17T09:43:12;101762.40;;;18.45;100.00
62948;BME280;51940;52.126;-0.994;2023-05-17T09:45:38;101773.45;;;18.35;100.00
62948;BME280;51940;52.126;-0.994;2023-05-17T09:48:11;101767.04;;;18.26;100.00
62948;BME280;51940;52.126;-0.994;2023-05-17T09:50:42;101766.16;;;18.20;100.00
62948;BME280;51940;52.126;-0.994;2023-05-17T09:53:32;101765.98;;;18.10;100.00
62948;BME280;51940;52.126;-0.994;2023-05-17T09:56:04;101765.16;;;18.01;100.00
62948;BME280;51940;52.126;-0.994;2023-05-17T09:58:31;101768.32;;;17.93;100.00
62948;BME280;51940;52.126;-0.994;2023-05-17T10:00:59;101764.11;;;17.95;100.00
62948;BME280;51940;52.126;-0.994;2023-05-17T10:03:31;101756.54;;;17.95;100.00
62948;BME280;51940;52.126;-0.994;2023-05-17T10:05:57;101762.63;;;17.96;100.00
62948;BME280;51940;52.126;-0.994;2023-05-17T10:08:25;101755.92;;;18.13;100.00
62948;BME280;51940;52.126;-0.994;2023-05-17T10:10:54;101756.60;;;18.41;100.00
62948;BME280;51940;52.126;-0.994;2023-05-17T10:13:23;101755.20;;;18.40;100.00
62948;BME280;51940;52.126;-0.994;2023-05-17T10:15:53;101750.75;;;18.38;100.00
62948;BME280;51940;52.126;-0.994;2023-05-17T10:18:19;101761.17;;;18.24;100.00
62948;BME280;51940;52.126;-0.994;2023-05-17T10:20:46;101760.84;;;18.17;100.00
62948;BME280;51940;52.126;-0.994;2023-05-17T10:23:13;101755.72;;;18.09;100.00
62948;BME280;51940;52.126;-0.994;2023-05-17T10:25:39;101756.95;;;18.15;100.00
62948;BME280;51940;52.126;-0.994;2023-05-17T10:28:06;101755.86;;;18.26;100.00
62948;BME280;51940;52.126;-0.994;2023-05-17T10:30:33;101748.36;;;18.34;100.00
62948;BME280;51940;52.126;-0.994;2023-05-17T10:33:00;101755.27;;;18.27;100.00
62948;BME280;51940;52.126;-0.994;2023-05-17T10:35:27;101757.33;;;18.20;100.00
62948;BME280;51940;52.126;-0.994;2023-05-17T10:37:54;101756.80;;;18.19;100.00
62948;BME280;51940;52.126;-0.994;2023-05-17T10:40:19;101761.09;;;18.16;100.00
62948;BME280;51940;52.126;-0.994;2023-05-17T10:42:51;101765.14;;;18.18;100.00
62948;BME280;51940;52.126;-0.994;2023-05-17T10:45:20;101765.17;;;18.17;100.00
62948;BME280;51940;52.126;-0.994;2023-05-17T10:47:50;101764.32;;;18.16;100.00
62948;BME280;51940;52.126;-0.994;2023-05-17T10:50:24;101755.52;;;18.15;100.00
62948;BME280;51940;52.126;-0.994;2023-05-17T10:52:52;101748.02;;;18.23;100.00
62948;BME280;51940;52.126;-0.994;2023-05-17T10:55:22;101745.92;;;18.42;100.00
62948;BME280;51940;52.126;-0.994;2023-05-17T10:58:15;101753.21;;;18.55;100.00
62948;BME280;51940;52.126;-0.994;2023-05-17T11:00:51;101756.56;;;18.42;100.00
62948;BME280;51940;52.126;-0.994;2023-05-17T11:03:27;101755.77;;;18.23;100.00
62948;BME280;51940;52.126;-0.994;2023-05-17T11:08:44;101742.06;;;18.01;100.00
62948;BME280;51940;52.126;-0.994;2023-05-17T11:11:17;101744.48;;;18.05;100.00
62948;BME280;51940;52.126;-0.994;2023-05-17T11:13:44;101752.42;;;18.10;100.00
62948;BME280;51940;52.126;-0.994;2023-05-17T11:16:14;101753.59;;;18.14;100.00
62948;BME280;51940;52.126;-0.994;2023-05-17T11:18:53;101758.30;;;18.13;100.00
62948;BME280;51940;52.126;-0.994;2023-05-17T11:21:27;101750.66;;;18.09;100.00
62948;BME280;51940;52.126;-0.994;2023-05-17T11:23:56;101738.85;;;18.22;100.00
62948;BME280;51940;52.126;-0.994;2023-05-17T11:29:16;101739.02;;;18.58;100.00
62948;BME280;51940;52.126;-0.994;2023-05-17T11:31:43;101736.09;;;18.85;100.00
62948;BME280;51940;52.126;-0.994;2023-05-17T11:34:10;101746.39;;;18.94;100.00
62948;BME280;51940;52.126;-0.994;2023-05-17T11:36:50;101758.84;;;18.95;100.00
62948;BME280;51940;52.126;-0.994;2023-05-17T11:39:19;101760.38;;;18.88;100.00
62948;BME280;51940;52.126;-0.994;2023-05-17T11:41:55;101758.58;;;18.83;100.00
62948;BME280;51940;52.126;-0.994;2023-05-17T11:44:41;101758.26;;;18.82;100.00
62948;BME280;51940;52.126;-0.994;2023-05-17T11:47:07;101753.84;;;18.83;100.00
62948;BME280;51940;52.126;-0.994;2023-05-17T11:49:37;101750.74;;;18.89;100.00
62948;BME280;51940;52.126;-0.994;2023-05-17T11:52:04;101743.16;;;19.03;100.00
62948;BME280;51940;52.126;-0.994;2023-05-17T11:54:30;101740.85;;;19.17;100.00
62948;BME280;51940;52.126;-0.994;2023-05-17T11:56:58;101737.55;;;19.36;100.00
62948;BME280;51940;52.126;-0.994;2023-05-17T11:59:23;101747.39;;;19.39;100.00
62948;BME280;51940;52.126;-0.994;2023-05-17T12:01:50;101748.47;;;19.35;100.00
62948;BME280;51940;52.126;-0.994;2023-05-17T12:04:46;101747.31;;;19.37;100.00
62948;BME280;51940;52.126;-0.994;2023-05-17T12:07:11;101739.42;;;19.53;100.00
62948;BME280;51940;52.126;-0.994;2023-05-17T12:09:37;101740.95;;;19.66;100.00
62948;BME280;51940;52.126;-0.994;2023-05-17T12:12:03;101739.88;;;19.74;100.00
62948;BME280;51940;52.126;-0.994;2023-05-17T12:14:29;101743.02;;;19.86;100.00
62948;BME280;51940;52.126;-0.994;2023-05-17T12:16:56;101738.66;;;19.90;100.00
62948;BME280;51940;52.126;-0.994;2023-05-17T12:19:24;101743.14;;;19.91;100.00
62948;BME280;51940;52.126;-0.994;2023-05-17T12:21:53;101747.11;;;19.70;100.00
62948;BME280;51940;52.126;-0.994;2023-05-17T12:24:18;101752.05;;;19.50;100.00
62948;BME280;51940;52.126;-0.994;2023-05-17T12:26:45;101738.86;;;19.63;100.00
62948;BME280;51940;52.126;-0.994;2023-05-17T12:29:12;101738.23;;;19.88;100.00
62948;BME280;51940;52.126;-0.994;2023-05-17T12:31:44;101735.64;;;20.02;100.00
62948;BME280;51940;52.126;-0.994;2023-05-17T12:34:10;101735.79;;;19.98;100.00
62948;BME280;51940;52.126;-0.994;2023-05-17T12:36:41;101735.32;;;20.01;100.00
62948;BME280;51940;52.126;-0.994;2023-05-17T12:39:08;101734.29;;;20.04;100.00
62948;BME280;51940;52.126;-0.994;2023-05-17T12:41:35;101734.51;;;20.07;100.00
62948;BME280;51940;52.126;-0.994;2023-05-17T12:44:04;101737.30;;;19.88;100.00
62948;BME280;51940;52.126;-0.994;2023-05-17T12:46:32;101742.23;;;19.70;100.00
62948;BME280;51940;52.126;-0.994;2023-05-17T12:49:03;101740.35;;;19.67;100.00